createdAt,value
2023-03-07T00:01:58.553Z,69.69
2023-03-07T00:04:25.357Z,70.14
2023-03-07T00:06:52.085Z,70.52
2023-03-07T00:09:18.896Z,70.40
2023-03-07T00:11:45.626Z,70.35
2023-03-07T00:14:12.382Z,69.96
2023-03-07T00:16:39.152Z,69.96
2023-03-07T00:19:09.230Z,70.14
2023-03-07T00:21:36.006Z,70.22
2023-03-07T00:24:03.040Z,70.43
2023-03-07T00:26:29.876Z,70.59
2023-03-07T00:28:56.833Z,70.64
2023-03-07T00:31:24.452Z,70.53
2023-03-07T00:33:51.210Z,70.73
2023-03-07T00:36:21.045Z,70.86
2023-03-07T00:38:48.439Z,71.08
2023-03-07T00:41:28.946Z,71.70
2023-03-07T00:43:55.968Z,71.88
2023-03-07T00:46:24.342Z,71.70
2023-03-07T00:48:51.242Z,71.78
2023-03-07T00:51:19.737Z,71.87
2023-03-07T00:53:46.909Z,72.12
2023-03-07T00:56:25.168Z,72.54
2023-03-07T00:58:52.559Z,71.97
2023-03-07T01:01:22.486Z,71.99
2023-03-07T01:03:53.511Z,72.11
2023-03-07T01:06:31.608Z,72.70
2023-03-07T01:09:04.870Z,72.89
2023-03-07T01:11:33.487Z,72.66
2023-03-07T01:14:04.456Z,73.71
2023-03-07T01:16:36.487Z,73.38
2023-03-07T01:19:07.016Z,73.69
2023-03-07T01:21:39.525Z,73.79
2023-03-07T01:24:08.575Z,73.76
2023-03-07T01:26:35.403Z,73.63
2023-03-07T01:29:04.570Z,73.52
2023-03-07T01:31:34.727Z,73.63
2023-03-07T01:34:02.560Z,73.84
2023-03-07T01:36:34.559Z,73.79
2023-03-07T01:39:10.330Z,74.01
2023-03-07T01:41:40.987Z,73.96
2023-03-07T01:44:19.398Z,74.52
2023-03-07T01:46:56.266Z,74.32
2023-03-07T01:49:46.170Z,74.11
2023-03-07T01:52:14.919Z,74.34
2023-03-07T01:54:51.419Z,74.56
2023-03-07T01:57:23.729Z,74.23
2023-03-07T01:59:56.304Z,74.59
2023-03-07T02:02:24.622Z,74.09
2023-03-07T02:04:54.730Z,74.23
2023-03-07T02:07:25.052Z,73.99
2023-03-07T02:09:53.782Z,73.60
2023-03-07T02:12:22.998Z,73.42
2023-03-07T02:14:51.111Z,73.24
2023-03-07T02:17:19.020Z,73.10
2023-03-07T02:19:57.812Z,73.20
2023-03-07T02:22:26.017Z,72.66
2023-03-07T02:25:01.424Z,73.06
2023-03-07T02:27:34.491Z,72.90
2023-03-07T02:30:01.917Z,73.58
2023-03-07T02:32:34.963Z,74.25
2023-03-07T02:35:01.849Z,75.12
2023-03-07T02:37:33.217Z,75.14
2023-03-07T02:40:05.337Z,75.02
2023-03-07T02:42:35.430Z,75.29
2023-03-07T02:45:11.001Z,74.89
2023-03-07T02:47:42.488Z,74.35
2023-03-07T02:50:11.303Z,73.88
2023-03-07T02:52:41.418Z,73.64
2023-03-07T02:55:09.283Z,74.65
2023-03-07T02:57:39.612Z,75.20
2023-03-07T03:00:08.242Z,75.11
2023-03-07T03:02:35.445Z,75.19
2023-03-07T03:05:02.431Z,75.27
2023-03-07T03:07:29.173Z,75.63
2023-03-07T03:09:55.941Z,75.70
2023-03-07T03:12:23.072Z,75.91
2023-03-07T03:14:50.238Z,76.34
2023-03-07T03:17:17.272Z,75.92
2023-03-07T03:19:44.132Z,75.82
2023-03-07T03:22:11.224Z,75.79
2023-03-07T03:24:42.833Z,75.25
2023-03-07T03:27:13.136Z,75.32
2023-03-07T03:29:41.244Z,75.48
2023-03-07T03:32:08.698Z,75.63
2023-03-07T03:34:35.633Z,76.00
2023-03-07T03:37:02.460Z,75.72
2023-03-07T03:39:30.156Z,75.06
2023-03-07T03:41:59.304Z,75.56
2023-03-07T03:44:26.873Z,75.27
2023-03-07T03:46:53.970Z,74.55
2023-03-07T03:49:22.330Z,74.03
2023-03-07T03:51:51.116Z,73.75
2023-03-07T03:54:18.491Z,73.74
2023-03-07T03:56:45.315Z,74.06
2023-03-07T03:59:13.177Z,74.13
2023-03-07T04:01:39.967Z,74.01
2023-03-07T04:04:07.482Z,74.34
2023-03-07T04:06:35.542Z,73.96
2023-03-07T04:09:04.915Z,73.64
2023-03-07T04:11:32.649Z,73.43
2023-03-07T04:13:59.543Z,73.27
2023-03-07T04:16:26.587Z,73.87
2023-03-07T04:18:53.952Z,73.56
2023-03-07T04:21:21.628Z,73.67
2023-03-07T04:23:50.578Z,73.14
2023-03-07T04:26:17.813Z,72.64
2023-03-07T04:28:49.469Z,72.75
2023-03-07T04:31:25.824Z,73.44
2023-03-07T04:33:54.278Z,73.12
2023-03-07T04:36:22.086Z,72.61
2023-03-07T04:38:50.089Z,72.60
2023-03-07T04:41:23.607Z,72.38
2023-03-07T04:43:54.850Z,72.79
2023-03-07T04:46:23.520Z,73.44
2023-03-07T04:48:50.466Z,72.87
2023-03-07T04:51:18.218Z,73.83
2023-03-07T04:53:45.171Z,73.57
2023-03-07T04:56:14.070Z,74.07
2023-03-07T04:58:41.912Z,74.17
2023-03-07T05:01:08.939Z,75.33
2023-03-07T05:03:36.001Z,75.28
2023-03-07T05:06:09.057Z,75.55
2023-03-07T05:08:36.279Z,75.93
2023-03-07T05:11:03.064Z,76.44
2023-03-07T05:13:31.285Z,76.63
2023-03-07T05:15:59.735Z,77.00
2023-03-07T05:18:27.932Z,76.99
2023-03-07T05:20:56.515Z,77.25
2023-03-07T05:23:23.879Z,77.15
2023-03-07T05:25:51.931Z,77.03
2023-03-07T05:28:19.161Z,76.44
2023-03-07T05:30:46.968Z,76.11
2023-03-07T05:33:14.961Z,75.80
2023-03-07T05:35:42.315Z,75.31
2023-03-07T05:38:11.418Z,75.00
2023-03-07T05:40:38.293Z,75.51
2023-03-07T05:43:06.164Z,75.46
2023-03-07T05:45:33.651Z,75.96
2023-03-07T05:48:01.300Z,76.01
2023-03-07T05:50:28.855Z,76.12
2023-03-07T05:52:55.661Z,75.95
2023-03-07T05:55:25.460Z,76.28
2023-03-07T05:57:52.694Z,76.16
2023-03-07T06:00:20.090Z,76.00
2023-03-07T06:02:53.788Z,76.41
2023-03-07T06:05:20.594Z,77.47
2023-03-07T06:07:47.468Z,77.26
2023-03-07T06:10:15.342Z,77.39
2023-03-07T06:12:42.130Z,76.94
2023-03-07T06:15:10.478Z,76.71
2023-03-07T06:17:38.253Z,76.50
2023-03-07T06:20:06.766Z,76.53
2023-03-07T06:22:37.857Z,76.23
2023-03-07T06:25:06.686Z,75.93
2023-03-07T06:27:35.076Z,76.27
2023-03-07T06:30:02.372Z,76.50
2023-03-07T06:32:32.048Z,76.37
2023-03-07T06:34:59.209Z,75.96
2023-03-07T06:37:27.350Z,75.35
2023-03-07T06:39:56.910Z,75.21
2023-03-07T06:42:23.765Z,74.79
2023-03-07T06:44:50.769Z,75.17
2023-03-07T06:47:19.074Z,75.43
2023-03-07T06:49:46.939Z,75.13
2023-03-07T06:52:14.469Z,75.22
2023-03-07T06:54:41.142Z,74.24
2023-03-07T06:57:09.059Z,73.82
2023-03-07T06:59:36.424Z,72.77
2023-03-07T07:02:03.929Z,71.75
2023-03-07T07:04:31.054Z,71.42
2023-03-07T07:06:59.446Z,71.16
2023-03-07T07:09:27.347Z,71.00
2023-03-07T07:11:54.242Z,70.83
2023-03-07T07:14:22.108Z,71.02
2023-03-07T07:16:49.261Z,70.20
2023-03-07T07:19:16.276Z,70.03
2023-03-07T07:21:43.274Z,69.72
2023-03-07T07:24:12.762Z,69.84
2023-03-07T07:26:39.836Z,69.81
2023-03-07T07:29:15.978Z,69.75
2023-03-07T07:31:43.197Z,69.46
2023-03-07T07:34:10.443Z,68.77
2023-03-07T07:36:37.233Z,68.46
2023-03-07T07:39:08.303Z,68.13
2023-03-07T07:41:37.518Z,67.88
2023-03-07T07:44:04.847Z,67.38
2023-03-07T07:46:38.015Z,66.67
2023-03-07T07:49:06.928Z,67.02
2023-03-07T07:51:33.950Z,65.78
2023-03-07T07:54:01.125Z,73.81
2023-03-07T07:56:27.913Z,66.63
2023-03-07T07:58:54.719Z,65.91
2023-03-07T08:01:24.603Z,66.22
2023-03-07T08:03:51.764Z,65.62
2023-03-07T08:06:20.558Z,63.74
2023-03-07T08:08:48.214Z,62.88
2023-03-07T08:11:16.575Z,64.19
2023-03-07T08:13:43.413Z,62.83
2023-03-07T08:16:11.927Z,62.24
2023-03-07T08:18:38.891Z,61.54
2023-03-07T08:21:05.840Z,61.53
2023-03-07T08:23:32.617Z,61.39
2023-03-07T08:26:05.843Z,61.22
2023-03-07T08:28:33.716Z,62.05
2023-03-07T08:31:14.865Z,61.26
2023-03-07T08:33:42.132Z,60.50
2023-03-07T08:36:09.793Z,59.70
2023-03-07T08:38:36.545Z,59.48
2023-03-07T08:41:06.433Z,59.17
2023-03-07T08:43:36.301Z,58.76
2023-03-07T08:46:03.712Z,58.45
2023-03-07T08:48:30.849Z,58.32
2023-03-07T08:50:57.843Z,58.22
2023-03-07T08:53:24.670Z,58.10
2023-03-07T08:55:51.402Z,57.88
2023-03-07T08:58:18.168Z,58.00
2023-03-07T09:00:44.917Z,57.37
2023-03-07T09:03:11.688Z,56.80
2023-03-07T09:05:39.199Z,56.74
2023-03-07T09:08:07.681Z,56.06
2023-03-07T09:10:35.571Z,55.50
2023-03-07T09:13:02.391Z,55.21
2023-03-07T09:15:29.234Z,54.61
2023-03-07T09:17:56.086Z,54.25
2023-03-07T09:20:24.784Z,54.31
2023-03-07T09:22:53.638Z,53.59
2023-03-07T09:25:20.563Z,53.69
2023-03-07T09:27:47.405Z,52.25
2023-03-07T09:30:15.448Z,52.66
2023-03-07T09:32:42.904Z,52.41
2023-03-07T09:35:10.417Z,52.11
2023-03-07T09:37:38.132Z,52.17
2023-03-07T09:40:07.437Z,51.46
2023-03-07T09:42:46.231Z,51.01
2023-03-07T09:45:21.926Z,52.30
2023-03-07T09:48:21.214Z,52.93
2023-03-07T10:03:43.725Z,50.43
2023-03-07T10:06:28.893Z,50.85
2023-03-07T10:08:56.453Z,52.29
2023-03-07T10:11:44.689Z,53.00
2023-03-07T10:14:35.876Z,53.22
2023-03-07T10:17:11.819Z,53.77
2023-03-07T10:20:08.325Z,53.85
2023-03-07T10:22:43.796Z,53.90
2023-03-07T10:25:10.550Z,53.83
2023-03-07T10:27:39.044Z,53.46
2023-03-07T10:30:20.882Z,53.73
2023-03-07T10:32:55.601Z,52.52
2023-03-07T10:35:24.934Z,52.67
2023-03-07T10:37:56.296Z,52.44
2023-03-07T10:40:32.039Z,51.14
2023-03-07T10:42:59.916Z,50.78
2023-03-07T10:45:32.268Z,50.19
2023-03-07T10:48:09.998Z,49.75
2023-03-07T10:50:45.202Z,49.29
2023-03-07T10:53:25.273Z,49.18
2023-03-07T10:55:52.497Z,49.53
2023-03-07T10:58:23.480Z,49.01
2023-03-07T11:01:02.552Z,48.86
2023-03-07T11:03:54.230Z,48.44
2023-03-07T11:06:31.475Z,48.34
2023-03-07T11:09:15.084Z,48.31
2023-03-07T11:12:07.346Z,48.72
2023-03-07T11:14:54.433Z,49.07
2023-03-07T11:17:43.163Z,49.52
2023-03-07T11:20:19.020Z,49.61
2023-03-07T11:22:46.420Z,48.95
2023-03-07T11:25:13.118Z,48.25
2023-03-07T11:27:52.634Z,47.75
2023-03-07T11:30:19.579Z,47.79
2023-03-07T11:33:10.815Z,48.40
2023-03-07T11:35:46.577Z,48.30
2023-03-07T11:38:36.614Z,48.31
2023-03-07T11:41:41.294Z,48.84
2023-03-07T11:44:45.849Z,49.02
2023-03-07T11:47:30.956Z,49.48
2023-03-07T11:50:26.975Z,49.08
2023-03-07T11:53:05.524Z,49.33
2023-03-07T11:55:44.402Z,49.91
2023-03-07T11:58:41.960Z,51.66
2023-03-07T12:01:36.598Z,51.70
2023-03-07T12:04:21.851Z,52.76
2023-03-07T12:07:21.395Z,52.96
2023-03-07T12:09:59.277Z,53.21
2023-03-07T12:12:34.843Z,53.21
2023-03-07T12:15:23.182Z,53.29
2023-03-07T12:18:12.867Z,54.05
2023-03-07T12:21:01.188Z,53.87
2023-03-07T12:23:39.621Z,53.72
2023-03-07T12:26:34.057Z,54.23
2023-03-07T12:29:19.473Z,54.37
2023-03-07T12:31:51.528Z,54.21
2023-03-07T12:34:30.428Z,54.02
2023-03-07T12:37:26.189Z,53.86
2023-03-07T12:39:59.647Z,53.81
2023-03-07T12:42:32.273Z,54.00
2023-03-07T12:45:06.229Z,53.99
2023-03-07T12:48:21.173Z,53.69
2023-03-07T12:50:56.749Z,53.65
2023-03-07T12:53:37.865Z,53.35
2023-03-07T12:56:12.848Z,52.91
2023-03-07T12:59:00.791Z,52.81
2023-03-07T13:01:41.313Z,52.72
2023-03-07T13:04:31.016Z,52.55
2023-03-07T13:07:15.578Z,52.17
2023-03-07T13:09:48.143Z,52.26
2023-03-07T13:12:21.747Z,52.39
2023-03-07T13:14:52.727Z,52.41
2023-03-07T13:17:34.386Z,51.86
2023-03-07T13:20:17.494Z,51.80
2023-03-07T13:22:44.212Z,51.63
2023-03-07T13:25:20.122Z,51.58
2023-03-07T13:27:48.045Z,52.40
2023-03-07T13:30:21.729Z,52.54
2023-03-07T13:32:48.780Z,52.39
2023-03-07T13:35:30.621Z,52.38
2023-03-07T13:38:03.778Z,51.97
2023-03-07T13:40:57.685Z,51.31
2023-03-07T13:43:27.202Z,50.86
2023-03-07T13:46:00.366Z,50.46
2023-03-07T13:48:27.504Z,50.25
2023-03-07T13:50:54.256Z,50.02
2023-03-07T13:53:42.759Z,49.82
2023-03-07T13:56:15.453Z,49.73
2023-03-07T13:59:04.060Z,49.54
2023-03-07T14:01:40.849Z,49.67
2023-03-07T14:04:38.469Z,49.46
2023-03-07T14:07:31.797Z,49.15
2023-03-07T14:10:21.437Z,48.59
2023-03-07T14:13:34.895Z,48.21
2023-03-07T14:16:13.694Z,48.13
2023-03-07T14:19:11.238Z,47.66
2023-03-07T14:22:00.959Z,47.55
2023-03-07T14:24:33.610Z,47.54
2023-03-07T14:27:05.056Z,47.10
2023-03-07T14:29:32.035Z,46.67
2023-03-07T14:32:01.064Z,46.14
2023-03-07T14:34:29.691Z,46.41
2023-03-07T14:36:57.853Z,46.05
2023-03-07T14:39:28.962Z,46.11
2023-03-07T14:42:10.030Z,45.89
2023-03-07T14:44:36.816Z,45.41
2023-03-07T14:47:25.629Z,45.52
2023-03-07T14:50:14.200Z,45.49
2023-03-07T14:52:42.015Z,45.48
2023-03-07T14:55:21.182Z,45.49
2023-03-07T14:57:53.074Z,45.60
2023-03-07T15:00:25.761Z,45.38
2023-03-07T15:03:07.981Z,45.41
2023-03-07T15:05:51.319Z,45.53
2023-03-07T15:08:30.023Z,45.05
2023-03-07T15:11:13.603Z,44.33
2023-03-07T15:13:47.765Z,44.60
2023-03-07T15:16:26.773Z,44.71
2023-03-07T15:19:01.932Z,44.47
2023-03-07T15:21:40.401Z,44.37
2023-03-07T15:24:19.636Z,44.63
2023-03-07T15:26:52.002Z,44.37
2023-03-07T15:29:22.151Z,44.03
2023-03-07T15:31:54.849Z,44.34
2023-03-07T15:34:26.699Z,44.26
2023-03-07T15:36:54.112Z,44.44
2023-03-07T15:39:34.597Z,44.45
2023-03-07T15:42:06.935Z,44.45
2023-03-07T15:44:36.395Z,44.86
2023-03-07T15:47:13.869Z,44.78
2023-03-07T15:49:47.532Z,44.59
2023-03-07T15:52:36.975Z,44.28
2023-03-07T15:55:17.757Z,44.18
2023-03-07T15:57:57.528Z,44.02
2023-03-07T16:00:34.821Z,43.98
2023-03-07T16:03:23.585Z,43.93
2023-03-07T16:05:51.338Z,43.95
2023-03-07T16:08:20.075Z,43.72
2023-03-07T16:10:52.492Z,43.86
2023-03-07T16:13:22.342Z,44.12
2023-03-07T16:16:04.040Z,44.14
2023-03-07T16:18:32.590Z,44.13
2023-03-07T16:20:59.957Z,44.11
2023-03-07T16:23:30.940Z,44.12
2023-03-07T16:25:59.905Z,44.12
2023-03-07T16:28:26.685Z,44.26
2023-03-07T16:30:53.551Z,44.25
2023-03-07T16:33:20.389Z,44.21
2023-03-07T16:35:47.734Z,44.08
2023-03-07T16:38:14.547Z,44.01
2023-03-07T16:40:43.983Z,44.15
2023-03-07T16:43:33.576Z,44.10
2023-03-07T16:46:02.080Z,44.19
2023-03-07T16:48:28.854Z,44.56
2023-03-07T16:50:55.700Z,44.32
2023-03-07T16:53:22.497Z,44.37
2023-03-07T16:55:49.480Z,44.28
2023-03-07T16:58:23.939Z,44.60
2023-03-07T17:00:51.307Z,44.62
2023-03-07T17:03:18.379Z,44.75
2023-03-07T17:05:45.157Z,44.86
2023-03-07T17:08:11.937Z,44.91
2023-03-07T17:10:39.935Z,44.88
2023-03-07T17:13:09.879Z,45.05
2023-03-07T17:15:36.794Z,45.16
2023-03-07T17:18:03.897Z,45.27
2023-03-07T17:20:31.139Z,45.37
2023-03-07T17:22:58.354Z,45.45
2023-03-07T17:25:26.077Z,45.54
2023-03-07T17:28:03.272Z,45.47
2023-03-07T17:30:31.558Z,45.69
2023-03-07T17:32:58.642Z,45.95
2023-03-07T17:35:25.857Z,45.88
2023-03-07T17:37:53.292Z,45.92
2023-03-07T17:40:21.747Z,46.02
2023-03-07T17:42:53.634Z,46.01
2023-03-07T17:45:20.831Z,46.08
2023-03-07T17:47:54.862Z,46.20
2023-03-07T17:50:25.563Z,46.42
2023-03-07T17:52:54.481Z,46.59
2023-03-07T17:55:24.939Z,46.57
2023-03-07T17:57:52.293Z,46.58
2023-03-07T18:00:20.952Z,46.62
2023-03-07T18:02:48.362Z,46.73
2023-03-07T18:05:15.353Z,46.93
2023-03-07T18:07:42.184Z,47.15
2023-03-07T18:10:10.316Z,47.17
2023-03-07T18:12:39.235Z,47.12
2023-03-07T18:15:14.033Z,47.22
2023-03-07T18:17:47.786Z,47.55
2023-03-07T18:20:20.033Z,47.65
2023-03-07T18:22:46.944Z,47.51
2023-03-07T18:25:15.570Z,47.64
2023-03-07T18:27:42.489Z,47.93
2023-03-07T18:30:10.240Z,47.98
2023-03-07T18:32:37.017Z,48.04
2023-03-07T18:35:04.579Z,48.08
2023-03-07T18:37:31.418Z,48.08
2023-03-07T18:39:58.186Z,48.17
2023-03-07T18:42:25.194Z,48.30
2023-03-07T18:44:52.052Z,48.27
2023-03-07T18:47:19.007Z,48.41
2023-03-07T18:49:48.465Z,48.58
2023-03-07T18:52:15.205Z,48.41
2023-03-07T18:54:42.470Z,48.58
2023-03-07T18:57:09.256Z,48.46
2023-03-07T18:59:35.968Z,48.62
2023-03-07T19:02:03.273Z,48.48
2023-03-07T19:04:31.437Z,48.49
2023-03-07T19:06:59.663Z,48.60
2023-03-07T19:09:27.800Z,48.42
2023-03-07T19:11:54.726Z,48.46
2023-03-07T19:14:21.549Z,48.43
2023-03-07T19:16:48.390Z,48.34
2023-03-07T19:19:15.183Z,48.57
2023-03-07T19:21:42.028Z,48.72
2023-03-07T19:24:11.399Z,48.58
2023-03-07T19:26:38.267Z,48.53
2023-03-07T19:29:05.110Z,48.76
2023-03-07T19:31:33.077Z,48.79
2023-03-07T19:34:03.391Z,48.52
2023-03-07T19:36:32.115Z,48.80
2023-03-07T19:39:02.231Z,49.06
2023-03-07T19:41:31.555Z,48.97
2023-03-07T19:44:01.624Z,48.78
2023-03-07T19:46:28.849Z,48.79
2023-03-07T19:48:55.769Z,48.78
2023-03-07T19:51:24.705Z,48.94
2023-03-07T19:53:54.782Z,49.09
2023-03-07T19:56:28.254Z,49.36
2023-03-07T19:58:55.857Z,49.35
2023-03-07T20:01:23.575Z,49.26
2023-03-07T20:03:51.144Z,49.10
2023-03-07T20:06:20.819Z,49.44
2023-03-07T20:08:48.804Z,49.45
2023-03-07T20:11:18.154Z,49.39
2023-03-07T20:13:46.397Z,50.91
2023-03-07T20:16:14.838Z,51.40
2023-03-07T20:18:42.186Z,52.41
2023-03-07T20:21:11.696Z,52.98
2023-03-07T20:23:38.707Z,54.21
2023-03-07T20:26:13.687Z,55.00
2023-03-07T20:28:40.636Z,56.67
2023-03-07T20:31:11.237Z,59.22
2023-03-07T20:33:40.708Z,59.97
2023-03-07T20:36:13.089Z,60.60
2023-03-07T20:38:39.973Z,60.98
2023-03-07T20:41:11.629Z,61.38
2023-03-07T20:43:38.430Z,61.71
2023-03-07T20:46:08.183Z,61.96
2023-03-07T20:48:36.004Z,62.47
2023-03-07T20:51:05.874Z,62.78
2023-03-07T20:53:33.430Z,63.52
2023-03-07T20:56:04.698Z,62.93
2023-03-07T20:58:32.679Z,62.56
2023-03-07T21:00:59.698Z,62.28
2023-03-07T21:03:27.386Z,62.01
2023-03-07T21:05:59.318Z,61.40
2023-03-07T21:08:28.632Z,60.82
2023-03-07T21:11:10.829Z,60.38
2023-03-07T21:13:38.641Z,60.46
2023-03-07T21:16:28.326Z,60.42
2023-03-07T21:19:02.389Z,60.50
2023-03-07T21:21:30.905Z,60.36
2023-03-07T21:23:58.564Z,60.31
2023-03-07T21:26:28.127Z,60.10
2023-03-07T21:28:56.828Z,60.85
2023-03-07T21:31:26.164Z,60.77
2023-03-07T21:33:58.176Z,61.03
2023-03-07T21:36:27.145Z,61.35
2023-03-07T21:38:54.664Z,61.22
2023-03-07T21:41:22.327Z,61.35
2023-03-07T21:43:49.323Z,61.11
2023-03-07T21:46:16.272Z,61.93
2023-03-07T21:48:43.658Z,61.90
2023-03-07T21:51:10.982Z,62.48
2023-03-07T21:53:37.902Z,62.13
2023-03-07T21:56:10.403Z,62.06
2023-03-07T21:58:38.121Z,62.05
2023-03-07T22:01:12.752Z,62.25
2023-03-07T22:03:40.975Z,62.87
2023-03-07T22:06:09.924Z,62.84
2023-03-07T22:08:37.257Z,63.42
2023-03-07T22:11:06.526Z,63.41
2023-03-07T22:13:35.221Z,63.83
2023-03-07T22:16:05.404Z,64.22
2023-03-07T22:18:33.168Z,64.43
2023-03-07T22:21:14.769Z,65.15
2023-03-07T22:23:42.384Z,65.15
2023-03-07T22:26:10.960Z,65.41
2023-03-07T22:28:38.449Z,65.41
2023-03-07T22:31:08.952Z,66.17
2023-03-07T22:33:36.025Z,65.87
2023-03-07T22:36:05.927Z,65.92
2023-03-07T22:38:33.657Z,65.83
2023-03-07T22:41:02.315Z,65.75
2023-03-07T22:43:31.420Z,66.07
2023-03-07T22:45:58.360Z,66.31
2023-03-07T22:48:25.526Z,66.44
2023-03-07T22:50:52.726Z,66.26
2023-03-07T22:53:20.352Z,67.09
2023-03-07T22:55:47.411Z,66.87
2023-03-07T22:58:14.481Z,66.68
2023-03-07T23:00:43.691Z,67.28
2023-03-07T23:03:10.796Z,67.06
2023-03-07T23:05:37.622Z,67.46
2023-03-07T23:08:04.680Z,67.45
2023-03-07T23:10:31.843Z,67.27
2023-03-07T23:12:59.170Z,67.22
2023-03-07T23:15:26.331Z,67.68
2023-03-07T23:17:53.397Z,67.58
2023-03-07T23:20:20.296Z,68.12
2023-03-07T23:22:47.114Z,67.83
2023-03-07T23:25:15.077Z,68.07
2023-03-07T23:27:43.081Z,68.20
2023-03-07T23:30:10.558Z,67.89
2023-03-07T23:32:37.411Z,67.99
2023-03-07T23:35:04.466Z,67.69
2023-03-07T23:37:31.359Z,67.99
2023-03-07T23:39:58.567Z,68.47
2023-03-07T23:42:25.389Z,68.92
2023-03-07T23:44:52.193Z,68.84
2023-03-07T23:47:19.005Z,69.04
2023-03-07T23:49:48.042Z,68.59
2023-03-07T23:52:14.790Z,68.93
2023-03-07T23:54:44.843Z,69.08
2023-03-07T23:57:11.973Z,70.09
2023-03-07T23:59:38.681Z,71.00
